Time;durP1;ratioP1;P1;durP2;ratioP2;P2;SDS_P1;SDS_P2;PMS_P1;PMS_P2;Temp;Humidity;BMP_temperature;BMP_pressure;BME280_temperature;BME280_humidity;BME280_pressure;Samples;Min_cycle;Max_cycle;Signal;HPM_P1;HPM_P2
2023/03/17 00:01:13;;;;;;;4.32;2.90;;;;;;;8.08;62.68;100765.31;5112095;28;20161;-64
2023/03/17 00:03:40;;;;;;;6.60;3.50;;;;;;;8.07;62.58;100766.25;5110025;28;20058;-65
2023/03/17 00:06:14;;;;;;;7.85;3.38;;;;;;;8.06;62.78;100770.72;5101709;28;20028;-64
2023/03/17 00:08:40;;;;;;;4.72;3.10;;;;;;;8.05;62.81;100770.81;5112448;28;20020;-64
2023/03/17 00:11:12;;;;;;;5.80;3.58;;;;;;;8.03;62.79;100767.44;5112050;28;20024;-64
2023/03/17 00:13:37;;;;;;;5.28;3.10;;;;;;;8.02;62.92;100773.66;5112454;28;20567;-64
2023/03/17 00:16:10;;;;;;;5.95;3.25;;;;;;;7.99;63.04;100773.88;5111778;28;20031;-64
2023/03/17 00:18:36;;;;;;;6.95;3.33;;;;;;;7.96;63.34;100759.91;5093861;28;20027;-64
2023/03/17 00:21:01;;;;;;;7.13;3.50;;;;;;;7.96;63.29;100748.47;5092637;28;20039;-64
2023/03/17 00:23:27;;;;;;;6.10;3.40;;;;;;;7.95;63.20;100741.50;5109962;28;20032;-64
2023/03/17 00:25:53;;;;;;;6.65;3.33;;;;;;;7.91;63.25;100735.56;5111581;28;20118;-64
2023/03/17 00:28:19;;;;;;;7.93;4.15;;;;;;;7.89;63.48;100726.88;5112024;28;20020;-64
2023/03/17 00:30:46;;;;;;;8.30;3.80;;;;;;;7.88;63.74;100727.00;5112373;28;20036;-64
2023/03/17 00:33:14;;;;;;;6.72;3.78;;;;;;;7.85;63.75;100716.63;5113157;28;20023;-64
2023/03/17 00:35:42;;;;;;;10.20;3.90;;;;;;;7.82;63.72;100725.59;5113419;28;20028;-64
2023/03/17 00:38:15;;;;;;;6.97;3.50;;;;;;;7.80;63.99;100727.50;5112430;28;20046;-64
2023/03/17 00:40:41;;;;;;;7.95;4.13;;;;;;;7.78;64.09;100730.25;5107960;28;20023;-64
2023/03/17 00:43:07;;;;;;;7.15;4.05;;;;;;;7.76;64.32;100732.16;5112895;28;20042;-64
2023/03/17 00:45:33;;;;;;;6.30;3.50;;;;;;;7.75;64.14;100722.50;5111256;28;20032;-64
2023/03/17 00:47:58;;;;;;;6.80;3.70;;;;;;;7.73;64.07;100721.78;5110565;28;20381;-64
2023/03/17 00:50:26;;;;;;;7.15;3.90;;;;;;;7.73;64.32;100723.56;5111137;28;20081;-65
2023/03/17 00:52:53;;;;;;;9.13;3.88;;;;;;;7.72;64.63;100722.72;5113655;28;20098;-64
2023/03/17 00:55:20;;;;;;;8.07;3.80;;;;;;;7.72;64.26;100721.88;5114924;28;20043;-64
2023/03/17 00:57:47;;;;;;;7.03;4.07;;;;;;;7.70;64.48;100718.50;5115104;28;20022;-64
2023/03/17 01:00:23;;;;;;;8.40;4.18;;;;;;;7.67;64.70;100716.03;5116342;27;20027;-64
2023/03/17 01:02:52;;;;;;;7.05;3.58;;;;;;;7.67;65.00;100719.53;5104315;28;20039;-64
2023/03/17 01:05:17;;;;;;;7.63;3.33;;;;;;;7.64;65.25;100721.53;5115117;28;20112;-64
2023/03/17 01:07:51;;;;;;;7.70;3.90;;;;;;;7.62;65.33;100729.56;5114757;28;20117;-64
2023/03/17 01:10:22;;;;;;;7.05;3.80;;;;;;;7.58;65.67;100721.00;5107189;28;20051;-64
2023/03/17 01:12:49;;;;;;;7.28;3.70;;;;;;;7.55;65.61;100721.19;5109741;28;20042;-64
2023/03/17 01:15:14;;;;;;;4.53;3.30;;;;;;;7.55;65.50;100723.84;5114599;28;20042;-64
2023/03/17 01:17:40;;;;;;;7.90;3.88;;;;;;;7.53;65.75;100720.44;5114907;27;20023;-64
2023/03/17 01:20:10;;;;;;;5.30;3.28;;;;;;;7.52;65.43;100712.63;5114454;28;20028;-64
2023/03/17 01:22:35;;;;;;;5.75;3.35;;;;;;;7.50;65.70;100706.59;5114398;28;20496;-64
2023/03/17 01:25:01;;;;;;;6.57;3.63;;;;;;;7.49;65.81;100704.88;5104565;28;20016;-64
2023/03/17 01:27:26;;;;;;;6.93;3.58;;;;;;;7.45;65.83;100696.31;5114321;28;20777;-64
2023/03/17 01:29:53;;;;;;;6.05;3.65;;;;;;;7.44;65.75;100702.53;5114976;27;20470;-64
2023/03/17 01:32:18;;;;;;;7.90;3.45;;;;;;;7.41;65.94;100711.53;5115017;28;20098;-64
2023/03/17 01:34:44;;;;;;;4.60;3.50;;;;;;;7.39;65.95;100699.34;5114511;28;20552;-64
2023/03/17 01:37:10;;;;;;;5.68;3.60;;;;;;;7.37;66.31;100709.19;5096669;28;20110;-64
2023/03/17 01:39:35;;;;;;;6.22;3.30;;;;;;;7.34;66.56;100696.16;5115594;27;20107;-64
2023/03/17 01:42:01;;;;;;;7.82;3.72;;;;;;;7.33;66.99;100694.50;5115004;27;20039;-64
2023/03/17 01:44:26;;;;;;;3.83;3.10;;;;;;;7.31;66.33;100699.00;5114571;27;20553;-64
2023/03/17 01:46:52;;;;;;;5.15;3.30;;;;;;;7.28;66.75;100693.91;5103552;28;20036;-64
2023/03/17 01:49:29;;;;;;;6.05;3.08;;;;;;;7.24;66.55;100695.91;5114476;28;20020;-65
2023/03/17 01:52:04;;;;;;;7.82;3.25;;;;;;;7.22;66.95;100696.00;5112922;28;20066;-64
2023/03/17 01:54:38;;;;;;;6.95;3.47;;;;;;;7.21;66.94;100689.06;5112839;27;20505;-64
2023/03/17 01:57:20;;;;;;;7.07;3.70;;;;;;;7.17;66.68;100684.91;5114287;27;20054;-64
2023/03/17 01:59:50;;;;;;;6.65;3.40;;;;;;;7.14;67.11;100671.06;5114201;27;20023;-64
2023/03/17 02:02:23;;;;;;;5.13;3.58;;;;;;;7.13;66.97;100672.03;5114040;28;20019;-64
2023/03/17 02:04:51;;;;;;;7.55;3.28;;;;;;;7.10;67.16;100672.22;5107639;28;20359;-64
2023/03/17 02:07:19;;;;;;;7.50;3.38;;;;;;;7.09;67.24;100671.34;5104463;28;20024;-64
2023/03/17 02:09:45;;;;;;;6.63;3.50;;;;;;;7.08;67.09;100661.75;5113789;28;20031;-65
2023/03/17 02:12:12;;;;;;;9.27;3.70;;;;;;;7.06;67.21;100658.38;5114726;27;20347;-64
2023/03/17 02:14:38;;;;;;;5.60;3.50;;;;;;;7.06;67.34;100661.00;5113004;28;20389;-64
2023/03/17 02:17:04;;;;;;;7.57;3.65;;;;;;;7.04;67.36;100660.25;5113867;27;20473;-64
2023/03/17 02:19:29;;;;;;;7.65;3.90;;;;;;;7.04;67.63;100662.88;5114132;27;20109;-64
2023/03/17 02:21:56;;;;;;;7.05;3.55;;;;;;;7.03;67.24;100663.84;5114021;27;20497;-64
2023/03/17 02:24:22;;;;;;;9.43;4.47;;;;;;;7.03;67.22;100654.13;5114217;27;20020;-65
2023/03/17 02:26:50;;;;;;;7.38;3.85;;;;;;;7.04;67.55;100657.59;5114094;28;20032;-64
2023/03/17 02:29:15;;;;;;;7.63;4.05;;;;;;;7.05;67.16;100648.75;5113890;27;20031;-64
2023/03/17 02:31:41;;;;;;;7.10;3.72;;;;;;;7.05;67.29;100646.09;5114063;27;20030;-64
2023/03/17 02:34:06;;;;;;;7.45;3.97;;;;;;;7.06;67.49;100645.16;5113512;27;20034;-64
2023/03/17 02:36:31;;;;;;;6.82;4.00;;;;;;;7.05;67.49;100640.81;5113326;28;20016;-65
2023/03/17 02:38:57;;;;;;;8.45;3.90;;;;;;;7.06;67.37;100641.66;5113319;28;20469;-64
2023/03/17 02:41:22;;;;;;;8.88;4.07;;;;;;;7.08;67.23;100639.75;5100864;28;20039;-65
2023/03/17 02:43:47;;;;;;;7.07;3.50;;;;;;;7.07;67.33;100635.44;5110765;27;20019;-65
2023/03/17 02:46:13;;;;;;;8.25;3.40;;;;;;;7.08;67.17;100634.47;5114442;27;20044;-65
2023/03/17 02:48:39;;;;;;;9.90;4.13;;;;;;;7.06;67.62;100631.97;5113965;27;20031;-65
2023/03/17 02:51:04;;;;;;;6.57;3.95;;;;;;;7.06;67.44;100631.97;5107478;27;20024;-65
2023/03/17 02:53:30;;;;;;;7.95;3.78;;;;;;;7.06;67.45;100634.59;5114052;27;20034;-65
2023/03/17 02:55:56;;;;;;;8.90;4.10;;;;;;;7.06;67.21;100631.97;5109551;27;20408;-65
2023/03/17 02:58:22;;;;;;;6.63;3.65;;;;;;;7.07;67.21;100627.50;5105970;28;20082;-65
2023/03/17 03:00:48;;;;;;;9.13;4.03;;;;;;;7.06;67.05;100631.09;5113491;27;20435;-65
2023/03/17 03:03:14;;;;;;;6.07;3.80;;;;;;;7.08;66.76;100632.69;5103325;27;20478;-64
2023/03/17 03:05:40;;;;;;;9.50;3.85;;;;;;;7.07;67.00;100638.06;5113023;27;20028;-64
2023/03/17 03:08:05;;;;;;;5.60;3.50;;;;;;;7.06;67.07;100637.25;5115057;27;20034;-64
2023/03/17 03:10:31;;;;;;;9.63;3.75;;;;;;;7.08;66.85;100640.63;5104068;27;20024;-65
2023/03/17 03:12:56;;;;;;;8.18;3.53;;;;;;;7.07;67.06;100627.50;5114771;27;20023;-64
2023/03/17 03:15:22;;;;;;;7.85;3.65;;;;;;;7.06;66.98;100626.69;5111322;28;20022;-63
2023/03/17 03:17:47;;;;;;;7.38;3.50;;;;;;;7.07;66.72;100628.34;5110858;28;20106;-64
2023/03/17 03:20:13;;;;;;;7.32;3.67;;;;;;;7.08;66.43;100632.69;5115604;27;20019;-64
2023/03/17 03:22:39;;;;;;;6.47;3.38;;;;;;;7.09;66.57;100642.28;5106374;27;20027;-65
2023/03/17 03:25:06;;;;;;;6.72;3.38;;;;;;;7.10;66.54;100645.81;5114248;27;20509;-64
2023/03/17 03:27:32;;;;;;;10.25;3.95;;;;;;;7.09;66.43;100647.56;5114637;28;20466;-64
2023/03/17 03:29:57;;;;;;;6.60;3.72;;;;;;;7.09;66.49;100639.66;5112768;27;20027;-64
2023/03/17 03:32:22;;;;;;;7.93;3.35;;;;;;;7.11;66.09;100637.78;5106591;27;20019;-64
2023/03/17 03:34:48;;;;;;;10.15;3.90;;;;;;;7.12;66.27;100631.53;5114029;27;20354;-64
2023/03/17 03:37:13;;;;;;;7.43;3.47;;;;;;;7.13;66.33;100640.31;5112585;28;20431;-64
2023/03/17 03:39:38;;;;;;;6.93;3.08;;;;;;;7.12;66.56;100657.09;5111901;28;20111;-65
2023/03/17 03:42:04;;;;;;;7.88;3.35;;;;;;;7.11;66.11;100653.63;5112333;28;20112;-64
2023/03/17 03:44:29;;;;;;;7.53;3.85;;;;;;;7.10;66.20;100648.44;5112454;27;20106;-64
2023/03/17 03:46:55;;;;;;;7.30;3.65;;;;;;;7.10;66.20;100651.09;5112441;28;20359;-64
2023/03/17 03:49:21;;;;;;;6.13;3.63;;;;;;;7.10;66.05;100654.56;5112314;28;20062;-64
2023/03/17 03:51:46;;;;;;;6.25;3.30;;;;;;;7.10;66.36;100646.66;5114263;27;20520;-65
2023/03/17 03:54:12;;;;;;;8.65;3.40;;;;;;;7.09;66.24;100647.56;5109953;28;20040;-65
2023/03/17 03:56:37;;;;;;;7.05;3.35;;;;;;;7.09;66.26;100659.94;5112544;28;20034;-65
2023/03/17 03:59:02;;;;;;;5.85;3.15;;;;;;;7.08;66.20;100661.75;5113917;28;20023;-64
2023/03/17 04:01:28;;;;;;;6.90;3.63;;;;;;;7.08;66.03;100664.38;5114548;28;20153;-64
2023/03/17 04:03:53;;;;;;;6.38;2.90;;;;;;;7.07;66.17;100670.59;5095474;28;20024;-65
2023/03/17 04:06:18;;;;;;;5.45;2.90;;;;;;;7.07;66.06;100669.78;5112016;28;20031;-64
2023/03/17 04:08:44;;;;;;;6.10;3.70;;;;;;;7.04;65.82;100661.09;5107784;28;20038;-64
2023/03/17 04:11:10;;;;;;;4.72;2.90;;;;;;;7.04;66.03;100661.09;5111677;28;20032;-65
2023/03/17 04:13:35;;;;;;;6.80;2.92;;;;;;;7.06;65.92;100662.78;5114207;28;20030;-65
2023/03/17 04:16:00;;;;;;;6.35;3.03;;;;;;;7.04;66.26;100663.75;5111461;28;20028;-64
2023/03/17 04:18:26;;;;;;;9.95;3.35;;;;;;;7.03;66.18;100663.84;5115265;28;20037;-64
2023/03/17 04:20:52;;;;;;;4.75;2.75;;;;;;;7.03;65.99;100661.19;5111843;28;20027;-64
2023/03/17 04:23:17;;;;;;;7.43;3.10;;;;;;;7.01;66.20;100666.56;5109665;28;20493;-64
2023/03/17 04:25:43;;;;;;;6.70;3.10;;;;;;;7.02;66.17;100667.41;5112192;28;20433;-64
2023/03/17 04:28:09;;;;;;;10.07;3.03;;;;;;;7.01;66.34;100665.72;5116202;27;20381;-64
2023/03/17 04:30:34;;;;;;;4.63;2.78;;;;;;;7.00;66.29;100664.88;5119249;27;20057;-64
2023/03/17 04:32:59;;;;;;;6.85;3.13;;;;;;;7.00;66.26;100664.03;5122976;27;20015;-65
2023/03/17 04:35:26;;;;;;;3.72;2.63;;;;;;;6.99;66.46;100659.69;5119908;27;20028;-64
2023/03/17 04:37:51;;;;;;;7.78;3.15;;;;;;;6.97;66.73;100653.66;5122501;27;20504;-65
2023/03/17 04:40:18;;;;;;;4.70;2.83;;;;;;;6.97;66.41;100669.50;5119641;27;20020;-64
2023/03/17 04:42:43;;;;;;;3.65;2.95;;;;;;;6.97;66.55;100669.50;5118850;27;20103;-65
2023/03/17 04:45:11;;;;;;;8.40;3.30;;;;;;;6.93;66.65;100663.59;5107718;27;20103;-64
2023/03/17 04:47:36;;;;;;;5.30;2.90;;;;;;;6.94;66.79;100669.69;5115482;28;20023;-64
2023/03/17 04:50:03;;;;;;;6.78;3.28;;;;;;;6.92;66.74;100666.31;5116160;27;20054;-65
2023/03/17 04:52:28;;;;;;;8.77;3.80;;;;;;;6.92;66.80;100661.03;5114019;27;20034;-64
2023/03/17 04:54:54;;;;;;;10.93;3.50;;;;;;;6.92;66.74;100653.13;5115953;28;20393;-64
2023/03/17 04:57:19;;;;;;;8.88;3.30;;;;;;;6.90;66.89;100663.78;5112523;28;20024;-64
2023/03/17 04:59:45;;;;;;;7.28;3.55;;;;;;;6.88;67.00;100659.53;5104974;28;20449;-65
2023/03/17 05:02:10;;;;;;;11.05;3.60;;;;;;;6.88;67.32;100656.88;5114578;28;20027;-64
2023/03/17 05:04:36;;;;;;;6.47;3.33;;;;;;;6.88;67.32;100654.25;5111918;28;20067;-65
2023/03/17 05:07:02;;;;;;;12.10;3.63;;;;;;;6.87;67.61;100649.94;5117947;27;20031;-64
2023/03/17 05:09:27;;;;;;;10.05;4.10;;;;;;;6.87;67.39;100645.50;5116225;28;20039;-64
2023/03/17 05:11:53;;;;;;;9.40;3.33;;;;;;;6.87;67.54;100647.28;5115782;28;20011;-64
2023/03/17 05:14:19;;;;;;;10.55;4.00;;;;;;;6.86;67.55;100635.88;5108102;28;20362;-64
2023/03/17 05:16:48;;;;;;;9.35;3.88;;;;;;;6.85;67.70;100640.31;5109895;27;20023;-64
2023/03/17 05:19:13;;;;;;;15.80;3.80;;;;;;;6.84;67.74;100648.31;5117628;27;20518;-64
2023/03/17 05:21:39;;;;;;;12.80;3.92;;;;;;;6.83;67.80;100642.19;5109249;28;20031;-64
2023/03/17 05:24:05;;;;;;;10.63;3.90;;;;;;;6.83;68.02;100649.28;5113577;28;20015;-64
2023/03/17 05:26:30;;;;;;;10.82;3.92;;;;;;;6.82;68.08;100653.69;5104278;28;20035;-64
2023/03/17 05:28:55;;;;;;;10.40;4.10;;;;;;;6.82;68.11;100661.63;5117955;27;20025;-64
2023/03/17 05:31:21;;;;;;;14.25;4.40;;;;;;;6.83;68.05;100658.03;5112496;28;20016;-64
2023/03/17 05:33:48;;;;;;;12.20;4.32;;;;;;;6.81;67.96;100662.56;5114984;28;20486;-64
2023/03/17 05:36:13;;;;;;;12.60;4.22;;;;;;;6.80;68.22;100666.16;5117666;27;20142;-64
2023/03/17 05:38:39;;;;;;;10.85;3.80;;;;;;;6.80;68.40;100662.69;5110404;28;20027;-64
2023/03/17 05:41:04;;;;;;;14.15;4.30;;;;;;;6.78;68.29;100665.41;5112284;28;20024;-64
2023/03/17 05:43:30;;;;;;;11.23;4.18;;;;;;;6.77;68.60;100661.06;5115467;28;20077;-64
2023/03/17 05:45:55;;;;;;;15.00;3.85;;;;;;;6.77;68.41;100663.69;5115910;27;20093;-64
2023/03/17 05:48:21;;;;;;;11.63;4.05;;;;;;;6.77;68.57;100647.03;5115087;28;20110;-64
2023/03/17 05:50:47;;;;;;;11.68;3.78;;;;;;;6.75;68.38;100656.84;5108845;27;20538;-64
2023/03/17 05:53:12;;;;;;;7.40;3.97;;;;;;;6.75;68.60;100652.41;5113480;28;20114;-64
2023/03/17 05:55:38;;;;;;;15.90;3.90;;;;;;;6.77;68.47;100654.94;5114593;28;20085;-64
2023/03/17 05:58:05;;;;;;;11.18;3.95;;;;;;;6.77;68.90;100658.41;5114662;28;20042;-64
2023/03/17 06:00:30;;;;;;;10.30;3.70;;;;;;;6.76;68.70;100651.47;5114365;27;20023;-64
2023/03/17 06:02:55;;;;;;;9.50;3.55;;;;;;;6.75;68.86;100644.47;5102239;27;20047;-64
2023/03/17 06:05:21;;;;;;;9.82;3.67;;;;;;;6.75;68.90;100644.47;5112932;27;20027;-64
2023/03/17 06:07:46;;;;;;;9.18;3.83;;;;;;;6.75;68.88;100649.75;5109728;28;20049;-64
2023/03/17 06:10:12;;;;;;;10.88;3.38;;;;;;;6.75;69.08;100647.13;5114231;28;20030;-64
2023/03/17 06:12:37;;;;;;;12.75;3.85;;;;;;;6.74;69.32;100652.50;5110233;28;20474;-65
2023/03/17 06:15:04;;;;;;;8.50;3.78;;;;;;;6.73;69.36;100651.66;5118029;27;20512;-64
2023/03/17 06:17:29;;;;;;;8.63;3.63;;;;;;;6.74;69.50;100655.97;5112125;28;20385;-64
2023/03/17 06:19:55;;;;;;;13.68;3.50;;;;;;;6.75;69.44;100657.69;5106255;27;20027;-64
2023/03/17 06:22:20;;;;;;;13.90;3.70;;;;;;;6.76;69.17;100658.53;5114913;27;20110;-64
2023/03/17 06:24:45;;;;;;;8.98;3.42;;;;;;;6.78;69.65;100664.56;5111647;28;20109;-64
2023/03/17 06:27:11;;;;;;;10.80;3.55;;;;;;;6.79;69.21;100663.59;5113782;28;20249;-64
2023/03/17 06:29:37;;;;;;;12.32;3.65;;;;;;;6.80;69.33;100657.41;5112097;27;20419;-64
2023/03/17 06:32:03;;;;;;;9.90;3.90;;;;;;;6.83;69.61;100659.84;5114163;28;20099;-64
2023/03/17 06:34:29;;;;;;;10.07;3.88;;;;;;;6.85;69.54;100671.97;5112024;27;20118;-64
2023/03/17 06:36:55;;;;;;;8.30;3.75;;;;;;;6.88;69.36;100660.41;5109567;28;20102;-64
2023/03/17 06:39:21;;;;;;;7.40;3.65;;;;;;;6.92;69.35;100667.16;5110179;28;20165;-64
2023/03/17 06:41:46;;;;;;;7.97;3.60;;;;;;;6.94;69.40;100653.84;5104420;28;20054;-64
2023/03/17 06:44:12;;;;;;;12.80;3.58;;;;;;;6.97;69.32;100651.03;5113618;28;20396;-64
2023/03/17 06:46:37;;;;;;;8.15;3.33;;;;;;;7.01;69.06;100656.00;5114329;27;20043;-64
2023/03/17 06:49:02;;;;;;;8.77;3.88;;;;;;;7.06;69.18;100660.13;5110096;28;20032;-64
2023/03/17 06:51:29;;;;;;;10.82;3.55;;;;;;;7.07;69.26;100654.75;5113140;28;20079;-64
2023/03/17 06:53:54;;;;;;;7.93;3.03;;;;;;;7.12;69.21;100662.38;5105630;27;20063;-64
2023/03/17 06:56:20;;;;;;;13.90;4.22;;;;;;;7.14;69.45;100657.84;5112880;28;20059;-65
2023/03/17 06:58:45;;;;;;;11.15;3.75;;;;;;;7.19;68.88;100658.38;5114870;27;20028;-64
2023/03/17 07:01:13;;;;;;;10.50;3.85;;;;;;;7.23;69.06;100659.91;5111566;28;20390;-64
2023/03/17 07:03:39;;;;;;;8.27;3.63;;;;;;;7.29;69.21;100661.28;5106197;28;20024;-64
2023/03/17 07:06:04;;;;;;;13.93;3.58;;;;;;;7.34;68.77;100665.31;5112738;28;20032;-63
2023/03/17 07:08:29;;;;;;;11.50;3.65;;;;;;;7.39;69.02;100667.66;5110783;28;20029;-64
2023/03/17 07:10:56;;;;;;;12.38;3.92;;;;;;;7.43;68.74;100669.16;5103886;28;20100;-64
2023/03/17 07:13:22;;;;;;;9.35;3.60;;;;;;;7.48;68.93;100664.41;5106502;28;20061;-64
2023/03/17 07:15:48;;;;;;;11.77;3.30;;;;;;;7.54;68.64;100669.28;5106823;28;20039;-64
2023/03/17 07:18:14;;;;;;;9.25;3.28;;;;;;;7.61;68.47;100667.09;5106422;28;20031;-64
2023/03/17 07:20:40;;;;;;;12.02;3.85;;;;;;;7.66;68.53;100670.28;5107557;28;20019;-64
2023/03/17 07:23:06;;;;;;;8.13;3.15;;;;;;;7.72;68.05;100669.00;5105908;27;20077;-64
2023/03/17 07:25:32;;;;;;;9.95;3.78;;;;;;;7.78;67.73;100664.13;5109607;28;20031;-64
2023/03/17 07:27:57;;;;;;;7.15;3.40;;;;;;;7.84;67.93;100656.75;5108642;28;20040;-64
2023/03/17 07:30:22;;;;;;;8.40;3.63;;;;;;;7.89;67.92;100658.13;5110569;27;20122;-64
2023/03/17 07:32:48;;;;;;;12.30;4.68;;;;;;;7.95;67.92;100652.41;5101655;28;20100;-64
2023/03/17 07:35:14;;;;;;;10.27;3.28;;;;;;;8.02;66.96;100649.34;5109483;27;20024;-64
2023/03/17 07:37:40;;;;;;;7.70;3.35;;;;;;;8.09;66.39;100640.91;5110935;28;20044;-64
2023/03/17 07:40:08;;;;;;;7.93;3.45;;;;;;;8.15;66.89;100639.59;5111716;28;20038;-64
2023/03/17 07:42:33;;;;;;;8.82;3.50;;;;;;;8.22;66.47;100640.03;5109083;27;20038;-64
2023/03/17 07:44:59;;;;;;;8.10;3.70;;;;;;;8.29;66.20;100647.44;5109264;27;20402;-64
2023/03/17 07:47:24;;;;;;;7.18;3.22;;;;;;;8.34;66.28;100642.66;5106970;28;20414;-64
2023/03/17 07:49:50;;;;;;;8.27;3.47;;;;;;;8.40;65.67;100648.47;5112627;28;20042;-62
2023/03/17 07:52:15;;;;;;;7.63;3.25;;;;;;;8.48;65.88;100660.25;5110168;28;20036;-62
2023/03/17 07:54:40;;;;;;;6.55;3.45;;;;;;;8.57;65.36;100658.72;5100558;28;20031;-62
2023/03/17 07:57:06;;;;;;;7.90;3.63;;;;;;;8.64;65.62;100651.19;5107136;28;20042;-62
2023/03/17 07:59:31;;;;;;;10.02;3.03;;;;;;;8.70;65.21;100670.13;5089347;28;20027;-62
2023/03/17 08:01:58;;;;;;;8.18;3.25;;;;;;;8.76;65.29;100668.00;5112711;28;20119;-62
2023/03/17 08:04:23;;;;;;;6.70;3.28;;;;;;;8.84;65.56;100665.66;5118200;28;20034;-62
2023/03/17 08:06:49;;;;;;;9.63;3.50;;;;;;;8.89;64.86;100659.09;5109655;27;20040;-62
2023/03/17 08:09:14;;;;;;;6.35;3.30;;;;;;;8.95;64.67;100647.19;5114306;28;20024;-62
2023/03/17 08:11:40;;;;;;;8.30;3.22;;;;;;;9.03;65.15;100644.81;5117176;27;20059;-62
2023/03/17 08:14:05;;;;;;;8.30;3.45;;;;;;;9.11;64.01;100654.00;5113652;28;20088;-62
2023/03/17 08:16:30;;;;;;;7.32;3.40;;;;;;;9.20;65.59;100669.22;5118909;27;20032;-62
2023/03/17 08:18:57;;;;;;;6.53;3.25;;;;;;;9.29;65.21;100660.59;5119019;28;20036;-62
2023/03/17 08:21:24;;;;;;;5.90;2.75;;;;;;;9.39;64.61;100660.75;5116969;27;20036;-62
2023/03/17 08:23:49;;;;;;;5.38;3.20;;;;;;;9.49;63.98;100661.75;5116226;27;20027;-62
2023/03/17 08:26:15;;;;;;;7.47;3.13;;;;;;;9.57;63.20;100658.53;5118016;27;20369;-62
2023/03/17 08:28:40;;;;;;;7.25;3.35;;;;;;;9.65;63.36;100656.16;5126485;27;20035;-62
2023/03/17 08:31:08;;;;;;;10.48;3.30;;;;;;;9.74;62.56;100647.50;5117261;27;20065;-62
2023/03/17 08:33:33;;;;;;;11.38;3.20;;;;;;;9.82;62.39;100642.47;5118589;27;20052;-62
2023/03/17 08:35:59;;;;;;;6.03;3.03;;;;;;;9.95;62.25;100646.81;5113553;27;20059;-62
2023/03/17 08:38:24;;;;;;;6.28;2.70;;;;;;;10.04;61.92;100639.94;5113147;27;20075;-62
2023/03/17 08:40:49;;;;;;;4.53;3.05;;;;;;;10.14;61.28;100635.59;5117566;28;20470;-63
2023/03/17 08:43:15;;;;;;;6.90;3.17;;;;;;;10.21;61.31;100623.56;5117929;27;20031;-62
2023/03/17 08:45:40;;;;;;;6.45;3.03;;;;;;;10.30;62.08;100630.78;5113439;27;20031;-62
2023/03/17 08:48:06;;;;;;;4.93;3.10;;;;;;;10.41;61.65;100639.72;5111135;27;20048;-62
2023/03/17 08:50:31;;;;;;;6.95;3.70;;;;;;;10.52;61.34;100645.91;5112228;27;20063;-62
2023/03/17 08:52:56;;;;;;;10.95;3.70;;;;;;;10.62;60.83;100642.50;5116428;27;20052;-62
2023/03/17 08:55:23;;;;;;;4.50;3.30;;;;;;;10.73;60.50;100653.13;5116485;27;20542;-62
2023/03/17 08:57:48;;;;;;;7.18;3.53;;;;;;;10.84;60.37;100649.59;5117438;27;20118;-62
2023/03/17 09:00:19;;;;;;;6.70;3.05;;;;;;;10.93;59.93;100644.38;5115980;27;20031;-62
2023/03/17 09:02:44;;;;;;;5.35;3.03;;;;;;;11.05;59.99;100634.53;5116797;27;20039;-62
2023/03/17 09:05:13;;;;;;;4.90;3.03;;;;;;;11.16;60.15;100631.03;5116944;27;20072;-62
2023/03/17 09:07:39;;;;;;;4.90;2.90;;;;;;;11.26;59.45;100625.78;5111669;27;20042;-62
2023/03/17 09:10:06;;;;;;;4.75;3.05;;;;;;;11.36;59.37;100634.69;5116296;27;20032;-62
2023/03/17 09:12:31;;;;;;;6.25;3.20;;;;;;;11.45;59.58;100633.06;5115474;27;20106;-62
2023/03/17 09:14:57;;;;;;;5.07;3.17;;;;;;;11.50;58.92;100636.19;5111628;28;20110;-62
2023/03/17 09:17:22;;;;;;;9.55;2.95;;;;;;;11.56;58.43;100640.16;5112958;28;20024;-62
2023/03/17 09:19:48;;;;;;;5.25;2.88;;;;;;;11.59;58.17;100634.56;5113851;27;20028;-63
2023/03/17 09:22:17;;;;;;;5.93;3.00;;;;;;;11.65;58.14;100626.06;5109074;27;20028;-62
2023/03/17 09:24:42;;;;;;;4.80;2.83;;;;;;;11.73;58.57;100636.91;5114595;27;20028;-62
2023/03/17 09:27:08;;;;;;;9.90;3.40;;;;;;;11.84;58.79;100636.00;5113482;27;20038;-62
2023/03/17 09:29:33;;;;;;;6.47;2.50;;;;;;;11.92;58.16;100638.84;5113299;27;20035;-63
2023/03/17 09:31:59;;;;;;;4.80;3.00;;;;;;;12.01;58.33;100634.59;5113394;27;20023;-62
2023/03/17 09:34:25;;;;;;;4.80;2.85;;;;;;;12.08;57.54;100633.06;5113227;27;20024;-63
2023/03/17 09:36:53;;;;;;;6.10;2.97;;;;;;;12.18;57.47;100612.66;5113521;27;20034;-63
2023/03/17 09:39:21;;;;;;;4.65;2.92;;;;;;;12.25;57.63;100610.28;5114265;27;20107;-63
2023/03/17 09:42:06;;;;;;;7.20;2.70;;;;;;;12.33;58.39;100623.78;5111041;28;20169;-62
2023/03/17 09:44:50;;;;;;;4.35;2.67;;;;;;;12.37;58.23;100625.22;5095038;28;20034;-63
2023/03/17 09:47:43;;;;;;;7.10;3.33;;;;;;;12.43;57.70;100628.31;5113352;27;20043;-62
2023/03/17 09:50:24;;;;;;;5.10;2.90;;;;;;;12.51;58.15;100639.16;5117827;27;20024;-62
2023/03/17 09:52:51;;;;;;;5.35;2.85;;;;;;;12.56;57.65;100628.94;5112710;28;20066;-62
2023/03/17 09:55:25;;;;;;;7.65;3.05;;;;;;;12.62;57.73;100635.53;5118511;27;20043;-62
2023/03/17 09:57:54;;;;;;;8.95;3.35;;;;;;;12.66;57.50;100637.78;5109433;27;20051;-62
2023/03/17 10:00:25;;;;;;;5.25;2.70;;;;;;;12.69;57.19;100639.31;5114012;27;20031;-62
2023/03/17 10:02:51;;;;;;;7.30;3.00;;;;;;;12.72;56.85;100655.03;5113038;27;20525;-62
2023/03/17 10:05:20;;;;;;;5.28;2.70;;;;;;;12.73;56.61;100660.22;5111752;28;20031;-63
2023/03/17 10:07:54;;;;;;;6.63;3.28;;;;;;;12.76;57.45;100645.81;5096167;27;20034;-62
2023/03/17 10:10:27;;;;;;;5.15;2.90;;;;;;;12.78;57.24;100644.66;5115793;27;20061;-62
2023/03/17 10:12:57;;;;;;;6.45;2.92;;;;;;;12.83;57.47;100643.44;5116404;27;20039;-62
2023/03/17 10:15:34;;;;;;;6.15;2.78;;;;;;;12.85;57.27;100670.78;5114628;27;20023;-62
2023/03/17 10:18:01;;;;;;;4.53;3.10;;;;;;;12.87;57.67;100682.16;5113447;27;20035;-62
2023/03/17 10:20:33;;;;;;;4.63;2.85;;;;;;;12.90;57.54;100673.88;5113748;27;20436;-63
2023/03/17 10:23:12;;;;;;;6.57;2.90;;;;;;;12.95;58.32;100671.66;5097070;27;20466;-63
2023/03/17 10:25:38;;;;;;;7.38;2.60;;;;;;;13.00;58.06;100690.72;5108950;27;20062;-62
2023/03/17 10:28:25;;;;;;;5.80;3.20;;;;;;;13.08;58.79;100687.41;5113429;27;20024;-62
2023/03/17 10:30:51;;;;;;;8.38;2.90;;;;;;;13.17;58.91;100683.88;5112127;28;20036;-62
2023/03/17 10:33:17;;;;;;;5.57;2.75;;;;;;;13.26;59.91;100682.22;5112945;27;20095;-62
2023/03/17 10:35:43;;;;;;;8.65;2.85;;;;;;;13.33;59.50;100681.53;5113170;27;20098;-62
2023/03/17 10:38:23;;;;;;;5.78;2.95;;;;;;;13.42;59.18;100674.56;5113340;27;20068;-62
2023/03/17 10:41:02;;;;;;;8.73;3.08;;;;;;;13.54;59.71;100666.38;5111141;27;20083;-63
2023/03/17 10:43:28;;;;;;;;;;;;;;;13.67;60.15;100657.13;5114115;27;20039;-62
2023/03/17 10:46:00;;;;;;;3.67;2.63;;;;;;;13.91;58.73;100665.66;5112735;27;19967;-63
2023/03/17 10:48:26;;;;;;;4.88;2.55;;;;;;;14.10;57.84;100654.91;5111898;28;20110;-62
2023/03/17 10:50:51;;;;;;;5.70;2.63;;;;;;;14.27;56.37;100663.16;5106742;28;20111;-62
2023/03/17 10:53:26;;;;;;;8.93;2.70;;;;;;;14.47;57.08;100658.56;5103534;28;20103;-63
2023/03/17 10:55:56;;;;;;;4.13;2.58;;;;;;;14.65;56.06;100656.81;5112600;27;20483;-63
2023/03/17 10:58:30;;;;;;;;;;;;;;;14.78;58.08;100661.81;5114132;27;20028;-63
2023/03/17 11:01:01;;;;;;;6.05;3.13;;;;;;;14.87;54.77;100644.91;5105632;28;19904;-63
2023/03/17 11:03:30;;;;;;;5.70;2.90;;;;;;;14.99;55.08;100643.69;5112165;27;20039;-63
2023/03/17 11:06:02;;;;;;;7.85;2.83;;;;;;;15.08;54.45;100641.09;5115113;27;20160;-62
2023/03/17 11:08:46;;;;;;;4.95;2.53;;;;;;;15.34;56.30;100642.00;5116009;27;20077;-63
2023/03/17 11:11:20;;;;;;;8.50;3.20;;;;;;;15.52;54.44;100649.16;5109705;28;20165;-62
2023/03/17 11:13:46;;;;;;;6.32;2.90;;;;;;;15.70;53.17;100644.66;5112951;27;20023;-62
2023/03/17 11:16:36;;;;;;;6.40;2.67;;;;;;;15.94;54.38;100628.91;5114712;27;20451;-62
2023/03/17 11:19:04;;;;;;;4.88;2.95;;;;;;;16.19;51.92;100629.94;5110941;27;20494;-62
2023/03/17 11:21:35;;;;;;;5.60;3.03;;;;;;;16.33;51.69;100634.66;5110920;27;20028;-62
2023/03/17 11:24:13;;;;;;;6.15;3.08;;;;;;;16.57;52.96;100625.91;5109555;27;20024;-62
2023/03/17 11:26:56;;;;;;;7.53;3.22;;;;;;;16.80;52.09;100627.97;5105732;27;20028;-62
2023/03/17 11:29:50;;;;;;;4.20;3.00;;;;;;;16.99;51.56;100626.88;5111622;28;20024;-62